Terminal Aerodrome Forecast
Issued by NWS

Home | Current Version | Previous Version | Text Only | Print | Product List | Glossary On
Versions: 1 2 3 4 5 6 7 8 9 10 11 12 13 14 15 16 17 18 19 20 21 22 23 24 25 26 27 28 29 30 31
000
FTUS45 KBOU 251458 AAA
TAFAPA
TAF AMD
KAPA 251458Z 2515/2612 24007KT P6SM SCT070 SCT200
     FM251900 32009KT P6SM FEW130 BKN220
      TEMPO 2520/2523 33012G20KT
     FM260100 24009KT P6SM SCT220
     FM260500 19007KT P6SM SKC=

USA.gov is the U.S. government's official web portal to all federal, state and local government web resources and services.